Terminal Aerodrome Forecast
Issued by NWS

Home | Current Version | Previous Version | Text Only | Print | Product List | Glossary On
Versions: 1 2 3 4 5 6 7 8 9 10 11 12 13 14 15 16 17 18 19 20
000
FTUS43 KDLH 170536
TAFBRD
TAF
KBRD 170536Z 1706/1806 16014G22KT P6SM BKN050
      TEMPO 1706/1708 5SM -SHSN
     FM171300 18009G16KT P6SM OVC028
     FM171700 21005KT 3SM -DZ OVC028
     FM172100 VRB03KT 5SM BR BKN015
     FM180000 34005KT P6SM BKN020
     FM180200 34005KT P6SM BKN045=

USA.gov is the U.S. government's official web portal to all federal, state and local government web resources and services.